createdAt,value
2019-05-23T00:01:30.300Z,101423.58
2019-05-23T00:06:36.293Z,101424.98
2019-05-23T00:12:00.767Z,101429.67
2019-05-23T00:17:06.203Z,101427.14
2019-05-23T00:22:11.728Z,101426.87
2019-05-23T00:27:18.839Z,101422.78
2019-05-23T00:32:42.942Z,101423.96
2019-05-23T00:37:48.884Z,101431.82
2019-05-23T00:42:55.926Z,101431.69
2019-05-23T00:48:01.336Z,101437.83
2019-05-23T00:53:10.936Z,101433.44
2019-05-23T00:58:18.057Z,101426.45
2019-05-23T01:03:25.335Z,101425.72
2019-05-23T01:08:31.927Z,101427.63
2019-05-23T01:13:37.593Z,101427.13
2019-05-23T01:18:43.778Z,101423.41
2019-05-23T01:23:56.846Z,101422.78
2019-05-23T01:29:04.281Z,101422.77
2019-05-23T01:34:14.083Z,101423.75
2019-05-23T01:39:19.661Z,101421.91
2019-05-23T01:44:26.502Z,101427.42
2019-05-23T01:49:32.445Z,101420.05
2019-05-23T01:54:38.011Z,101421.95
2019-05-23T01:59:43.596Z,101420.97
2019-05-23T02:04:49.170Z,101425.03
2019-05-23T02:09:55.061Z,101421.84
2019-05-23T02:15:00.491Z,101418.74
2019-05-23T02:20:07.230Z,101420.42
2019-05-23T02:25:14.478Z,101415.22
2019-05-23T02:30:34.246Z,101408.48
2019-05-23T02:35:29.300Z,101406.55
2019-05-23T02:40:51.779Z,101405.89
2019-05-23T02:46:00.298Z,101407.43
2019-05-23T02:51:11.474Z,101405.56
2019-05-23T02:56:17.110Z,101405.98
2019-05-23T03:02:01.555Z,101397.44
2019-05-23T03:07:08.634Z,101398.55
2019-05-23T03:12:15.915Z,101391.12
2019-05-23T03:17:21.999Z,101385.24
2019-05-23T03:22:49.029Z,101395.33
2019-05-23T03:27:54.619Z,101384.78
2019-05-23T03:33:03.041Z,101389.55
2019-05-23T03:38:11.382Z,101391.53
2019-05-23T03:43:17.597Z,101399.30
2019-05-23T03:48:24.217Z,101403.06
2019-05-23T03:53:31.425Z,101397.38
2019-05-23T03:58:37.755Z,101389.63
2019-05-23T04:03:45.237Z,101391.69
2019-05-23T04:08:50.663Z,101395.38
2019-05-23T04:13:56.200Z,101392.67
2019-05-23T04:19:01.961Z,101398.27
2019-05-23T04:24:07.834Z,101394.11
2019-05-23T04:29:13.274Z,101397.55
2019-05-23T04:34:19.015Z,101398.02
2019-05-23T04:39:24.616Z,101395.66
2019-05-23T04:44:30.407Z,101398.73
2019-05-23T04:49:35.985Z,101395.27
2019-05-23T04:54:41.955Z,101394.37
2019-05-23T04:59:49.473Z,101385.91
2019-05-23T05:04:54.897Z,101391.55
2019-05-23T05:10:00.423Z,101391.68
2019-05-23T05:15:05.870Z,101384.30
2019-05-23T05:20:11.989Z,101388.19
2019-05-23T05:25:17.571Z,101376.53
2019-05-23T05:30:23.124Z,101370.16
2019-05-23T05:35:29.615Z,101371.12
2019-05-23T05:40:35.280Z,101367.20
2019-05-23T05:45:40.688Z,101365.64
2019-05-23T05:50:46.156Z,101363.39
2019-05-23T05:55:51.603Z,101364.65
2019-05-23T06:01:04.436Z,101359.17
2019-05-23T06:06:23.996Z,101367.86
2019-05-23T06:11:30.147Z,101362.50
2019-05-23T06:16:35.979Z,101363.62
2019-05-23T06:21:41.956Z,101358.00
2019-05-23T06:26:47.701Z,101352.80
2019-05-23T06:31:53.931Z,101357.45
2019-05-23T06:36:59.668Z,101350.30
2019-05-23T06:42:05.772Z,101340.52
2019-05-23T06:47:12.029Z,101337.79
2019-05-23T06:52:18.101Z,101333.14
2019-05-23T06:57:24.232Z,101336.20
2019-05-23T07:02:32.114Z,101339.08
2019-05-23T07:07:38.359Z,101333.25
2019-05-23T07:12:44.202Z,101334.18
2019-05-23T07:17:49.936Z,101332.47
2019-05-23T07:22:56.020Z,101333.64
2019-05-23T07:28:01.980Z,101338.00
2019-05-23T07:33:07.959Z,101335.80
2019-05-23T07:38:14.005Z,101337.45
2019-05-23T07:43:20.736Z,101328.26
2019-05-23T07:48:27.298Z,101325.05
2019-05-23T07:53:52.059Z,101321.70
2019-05-23T07:58:58.036Z,101322.58
2019-05-23T08:04:20.725Z,101309.41
2019-05-23T08:09:13.325Z,101315.70
2019-05-23T08:14:19.081Z,101306.80
2019-05-23T08:19:25.010Z,101302.68
2019-05-23T08:24:30.758Z,101298.05
2019-05-23T08:29:36.808Z,101295.39
2019-05-23T08:34:43.029Z,101296.72
2019-05-23T08:39:49.827Z,101291.70
2019-05-23T08:44:55.593Z,101283.63
2019-05-23T08:50:01.359Z,101281.50
2019-05-23T08:55:19.482Z,101276.42
2019-05-23T09:00:27.656Z,101268.34
2019-05-23T09:05:35.207Z,101268.00
2019-05-23T09:10:41.036Z,101268.83
2019-05-23T09:15:47.135Z,101258.41
2019-05-23T09:20:53.355Z,101262.38
2019-05-23T09:25:59.112Z,101258.89
2019-05-23T09:31:04.929Z,101252.85
2019-05-23T09:36:11.087Z,101253.90
2019-05-23T09:41:16.799Z,101262.53
2019-05-23T09:46:22.830Z,101252.19
2019-05-23T09:51:28.743Z,101264.87
2019-05-23T09:56:34.657Z,101252.28
2019-05-23T10:01:40.684Z,101257.08
2019-05-23T10:06:46.589Z,101252.23
2019-05-23T10:11:52.473Z,101255.00
2019-05-23T10:16:58.380Z,101258.98
2019-05-23T10:22:04.730Z,101249.80
2019-05-23T10:27:12.239Z,101244.52
2019-05-23T10:32:18.186Z,101240.45
2019-05-23T10:37:24.984Z,101248.86
2019-05-23T10:42:30.748Z,101241.39
2019-05-23T10:47:36.594Z,101241.48
2019-05-23T10:52:42.330Z,101232.27
2019-05-23T10:57:48.122Z,101225.20
2019-05-23T11:02:54.205Z,101217.89
2019-05-23T11:08:00.208Z,101208.55
2019-05-23T11:13:07.922Z,101207.66
2019-05-23T11:18:13.699Z,101200.53
2019-05-23T11:23:25.630Z,101199.81
2019-05-23T11:28:31.740Z,101206.23
2019-05-23T11:33:38.127Z,101203.28
2019-05-23T11:38:43.876Z,101199.91
2019-05-23T11:43:49.751Z,101192.76
2019-05-23T11:48:55.831Z,101193.15
2019-05-23T11:54:08.541Z,101181.97
2019-05-23T11:59:09.452Z,101179.02
2019-05-23T12:04:22.926Z,101180.48
2019-05-23T12:09:30.505Z,101171.47
2019-05-23T12:14:36.257Z,101174.95
2019-05-23T12:19:42.414Z,101167.71
2019-05-23T12:24:48.475Z,101162.91
2019-05-23T12:29:54.312Z,101164.39
2019-05-23T12:35:10.455Z,101157.96
2019-05-23T12:40:09.114Z,101163.15
2019-05-23T12:45:15.241Z,101157.29
2019-05-23T12:50:23.842Z,101151.51
2019-05-23T12:55:29.668Z,101148.47
2019-05-23T13:00:47.321Z,101145.52
2019-05-23T13:05:53.059Z,101131.80
2019-05-23T13:10:58.753Z,101133.17
2019-05-23T13:16:04.655Z,101129.87
2019-05-23T13:21:10.366Z,101118.95
2019-05-23T13:26:16.075Z,101114.16
2019-05-23T13:31:21.899Z,101110.82
2019-05-23T13:36:27.696Z,101103.34
2019-05-23T13:41:33.438Z,101112.45
2019-05-23T13:46:39.154Z,101102.91
2019-05-23T13:51:45.005Z,101100.14
2019-05-23T13:56:51.592Z,101090.95
2019-05-23T14:01:57.525Z,101088.31
2019-05-23T14:07:03.869Z,101095.58
2019-05-23T14:12:24.991Z,101095.93
2019-05-23T14:17:34.448Z,101093.84
2019-05-23T14:22:44.830Z,101089.77
2019-05-23T14:27:55.842Z,101087.00
2019-05-23T14:33:03.277Z,101086.52
2019-05-23T14:38:29.054Z,101081.89
2019-05-23T14:43:22.496Z,101076.44
2019-05-23T14:48:50.070Z,101078.19
2019-05-23T14:54:00.720Z,101070.11
2019-05-23T14:59:06.604Z,101060.50
2019-05-23T15:04:12.727Z,101063.82
2019-05-23T15:09:21.342Z,101049.48
2019-05-23T15:14:26.370Z,101048.84
2019-05-23T15:19:44.088Z,101044.67
2019-05-23T15:24:39.717Z,101044.92
2019-05-23T15:29:45.505Z,101051.33
2019-05-23T15:34:50.944Z,101042.72
2019-05-23T15:39:56.451Z,101048.17
2019-05-23T15:45:01.966Z,101046.44
2019-05-23T15:50:11.491Z,101044.45
2019-05-23T15:55:44.792Z,101035.22
2019-05-23T16:01:09.143Z,101036.66
2019-05-23T16:06:17.448Z,101030.63
2019-05-23T16:11:23.228Z,101034.78
2019-05-23T16:16:29.242Z,101032.48
2019-05-23T16:21:34.901Z,101035.98
2019-05-23T16:26:40.794Z,101029.00
2019-05-23T16:31:46.352Z,101032.89
2019-05-23T16:36:51.805Z,101031.09
2019-05-23T16:41:57.652Z,101032.34
2019-05-23T16:47:03.208Z,101031.43
2019-05-23T16:52:08.617Z,101029.48
2019-05-23T16:57:39.128Z,101030.98
2019-05-23T17:03:01.518Z,101031.23
2019-05-23T17:08:24.274Z,101032.81
2019-05-23T17:13:54.588Z,101035.55
2019-05-23T17:19:06.310Z,101038.77
2019-05-23T17:24:16.923Z,101034.28
2019-05-23T17:29:30.756Z,101027.76
2019-05-23T17:34:36.602Z,101032.48
2019-05-23T17:39:43.877Z,101025.23
2019-05-23T17:44:49.369Z,101019.87
2019-05-23T17:49:54.842Z,101024.63
2019-05-23T17:55:00.338Z,101025.13
2019-05-23T18:00:07.346Z,101018.45
2019-05-23T18:05:12.863Z,101019.87
2019-05-23T18:10:18.894Z,101021.20
2019-05-23T18:15:25.568Z,101020.03
2019-05-23T18:20:31.791Z,101021.84
2019-05-23T18:25:37.515Z,101019.55
2019-05-23T18:30:56.203Z,101017.81
2019-05-23T18:36:02.441Z,101021.45
2019-05-23T18:41:09.473Z,101024.70
2019-05-23T18:46:23.353Z,101033.44
2019-05-23T18:51:28.902Z,101035.02
2019-05-23T18:56:34.367Z,101038.94
2019-05-23T19:01:40.142Z,101037.23
2019-05-23T19:06:46.185Z,101039.56
2019-05-23T19:11:51.742Z,101052.17
2019-05-23T19:16:57.837Z,101054.11
2019-05-23T19:22:04.132Z,101054.02
2019-05-23T19:27:14.086Z,101053.55
2019-05-23T19:32:19.733Z,101060.56
2019-05-23T19:37:25.281Z,101061.97
2019-05-23T19:42:30.824Z,101067.91
2019-05-23T19:47:36.348Z,101078.36
2019-05-23T19:52:42.011Z,101080.09
2019-05-23T19:57:48.061Z,101088.67
2019-05-23T20:02:55.950Z,101095.70
2019-05-23T20:08:01.537Z,101097.28
2019-05-23T20:13:07.220Z,101095.28
2019-05-23T20:18:12.776Z,101089.53
2019-05-23T20:23:18.393Z,101091.84
2019-05-23T20:28:24.692Z,101098.45
2019-05-23T20:33:30.185Z,101090.20
2019-05-23T20:38:35.942Z,101102.01
2019-05-23T20:43:41.520Z,101099.47
2019-05-23T20:48:47.125Z,101101.23
2019-05-23T20:53:52.788Z,101099.66
2019-05-23T20:58:58.269Z,101092.36
2019-05-23T21:04:03.905Z,101100.16
2019-05-23T21:09:09.786Z,101098.28
2019-05-23T21:14:15.869Z,101099.59
2019-05-23T21:19:21.316Z,101103.34
2019-05-23T21:24:26.935Z,101099.13
2019-05-23T21:29:32.666Z,101096.27
2019-05-23T21:34:38.157Z,101096.41
2019-05-23T21:39:43.650Z,101092.95
2019-05-23T21:44:49.279Z,101083.84
2019-05-23T21:49:54.821Z,101086.84
2019-05-23T21:55:00.269Z,101089.27
2019-05-23T22:00:07.416Z,101091.03
2019-05-23T22:05:17.610Z,101089.69
2019-05-23T22:10:23.063Z,101085.66
2019-05-23T22:15:38.073Z,101087.29
2019-05-23T22:20:43.619Z,101085.91
2019-05-23T22:25:49.018Z,101085.70
2019-05-23T22:30:54.610Z,101083.09
2019-05-23T22:36:01.868Z,101081.41
2019-05-23T22:41:07.275Z,101078.44
2019-05-23T22:46:13.138Z,101078.33
2019-05-23T22:51:18.510Z,101082.23
2019-05-23T22:56:23.934Z,101087.34
2019-05-23T23:01:30.625Z,101090.41
2019-05-23T23:06:36.142Z,101090.92
2019-05-23T23:11:41.563Z,101090.78
2019-05-23T23:16:47.613Z,101080.25
2019-05-23T23:21:53.027Z,101075.97
2019-05-23T23:26:58.435Z,101071.20
2019-05-23T23:32:04.327Z,101063.50
2019-05-23T23:37:09.825Z,101057.41
2019-05-23T23:42:15.311Z,101055.89
2019-05-23T23:47:38.008Z,101054.47
2019-05-23T23:53:00.822Z,101056.66
2019-05-23T23:58:07.253Z,101052.44
